Time;durP1;ratioP1;P1;durP2;ratioP2;P2;SDS_P1;SDS_P2;PMS_P1;PMS_P2;Temp;Humidity;BMP_temperature;BMP_pressure;BME280_temperature;BME280_humidity;BME280_pressure;Samples;Min_cycle;Max_cycle;Signal;HPM_P1;HPM_P2
2021/12/09 00:00:30;;;;;;;;;;;;;;;6.48;100.00;96795.59;5095552;28;19924;-83
2021/12/09 00:03:05;;;;;;;;;;;;;;;6.26;100.00;96776.16;5095695;28;19970;-83
2021/12/09 00:05:33;;;;;;;;;;;;;;;6.57;100.00;96798.44;5095553;28;19952;-83
2021/12/09 00:08:00;;;;;;;;;;;;;;;6.65;100.00;96805.28;5078465;28;19924;-83
2021/12/09 00:10:27;;;;;;;;;;;;;;;6.45;100.00;96802.06;5078718;28;19939;-82
2021/12/09 00:12:55;;;;;;;;;;;;;;;6.47;100.00;96838.41;5095458;28;19923;-83
2021/12/09 00:15:22;;;;;;;;;;;;;;;6.71;100.00;96845.09;5078430;28;19924;-83
2021/12/09 00:17:49;;;;;;;;;;;;;;;6.47;100.00;96838.41;5078631;28;19928;-83
2021/12/09 00:20:22;;;;;;;;;;;;;;;6.52;100.00;96835.84;5096217;28;20541;-83
2021/12/09 00:22:49;;;;;;;;;;;;;;;6.60;100.00;96844.69;5078260;28;20301;-83
2021/12/09 00:25:16;;;;;;;;;;;;;;;6.46;100.00;96854.31;5095845;28;20016;-83
2021/12/09 00:27:44;;;;;;;;;;;;;;;6.22;100.00;96860.69;5096118;28;20286;-83
2021/12/09 00:30:11;;;;;;;;;;;;;;;6.41;100.00;96863.19;5077922;28;19924;-82
2021/12/09 00:32:39;;;;;;;;;;;;;;;6.39;100.00;96859.31;5094967;28;19928;-83
2021/12/09 00:35:07;;;;;;;;;;;;;;;6.43;100.00;96859.97;5094883;28;20160;-83
2021/12/09 00:37:41;;;;;;;;;;;;;;;6.54;100.00;96866.69;5094884;28;20272;-83
2021/12/09 00:40:08;;;;;;;;;;;;;;;6.61;100.00;96852.56;5077827;28;20336;-83
2021/12/09 00:42:36;;;;;;;;;;;;;;;6.39;100.00;96873.94;5077881;28;19924;-82
2021/12/09 00:45:03;;;;;;;;;;;;;;;6.54;100.00;96882.56;5094623;28;20026;-83
2021/12/09 00:47:30;;;;;;;;;;;;;;;6.20;100.00;96871.44;5094695;28;20439;-83
2021/12/09 00:49:58;;;;;;;;;;;;;;;6.21;100.00;96864.69;5094610;28;19927;-83
2021/12/09 00:52:25;;;;;;;;;;;;;;;6.18;100.00;96882.22;5094515;28;20378;-82
2021/12/09 00:54:52;;;;;;;;;;;;;;;6.25;100.00;96893.06;5094708;28;19973;-82
2021/12/09 00:57:20;;;;;;;;;;;;;;;5.75;100.00;96887.53;5094730;28;19952;-83
2021/12/09 00:59:47;;;;;;;;;;;;;;;5.60;100.00;96860.28;5077591;28;19924;-82
2021/12/09 01:05:31;;;;;;;;;;;;;;;6.03;100.00;96892.97;5111248;28;20019;-83
2021/12/09 01:07:58;;;;;;;;;;;;;;;6.24;100.00;96864.56;5094387;28;20367;-83
2021/12/09 01:10:26;;;;;;;;;;;;;;;6.66;100.00;96887.28;5093994;28;20382;-83
2021/12/09 01:12:54;;;;;;;;;;;;;;;6.52;100.00;96876.69;5077635;28;20297;-83
2021/12/09 01:15:21;;;;;;;;;;;;;;;6.72;100.00;96899.38;5077346;28;19931;-83
2021/12/09 01:17:49;;;;;;;;;;;;;;;6.60;100.00;96902.97;5093951;28;19924;-83
2021/12/09 01:20:17;;;;;;;;;;;;;;;6.71;100.00;96895.06;5089169;28;20029;-83
2021/12/09 01:22:45;;;;;;;;;;;;;;;6.97;100.00;96886.16;5073571;28;19924;-83
2021/12/09 01:25:15;;;;;;;;;;;;;;;6.89;100.00;96892.44;5056910;28;20009;-83
2021/12/09 01:27:44;;;;;;;;;;;;;;;6.87;100.00;96884.56;5056824;28;19925;-83
2021/12/09 01:30:15;;;;;;;;;;;;;;;6.71;100.00;96906.16;5090246;28;19931;-83
2021/12/09 01:32:48;;;;;;;;;;;;;;;6.76;100.00;96894.47;5075036;28;19931;-83
2021/12/09 01:35:20;;;;;;;;;;;;;;;7.00;100.00;96895.56;5073528;28;19988;-83
2021/12/09 01:37:49;;;;;;;;;;;;;;;6.78;100.00;96894.81;5089584;28;19929;-83
2021/12/09 01:40:16;;;;;;;;;;;;;;;6.89;100.00;96909.84;5073352;28;19931;-82
2021/12/09 01:42:43;;;;;;;;;;;;;;;6.93;100.00;96898.63;5056691;28;19975;-83
2021/12/09 01:45:10;;;;;;;;;;;;;;;6.91;100.00;96906.63;5073173;28;19924;-83
2021/12/09 01:47:38;;;;;;;;;;;;;;;7.03;100.00;96922.44;5074568;28;19935;-83
2021/12/09 01:50:06;;;;;;;;;;;;;;;6.97;100.00;96925.03;5056590;28;19924;-83
2021/12/09 01:52:33;;;;;;;;;;;;;;;7.21;100.00;96942.78;5073038;28;19978;-83
2021/12/09 01:55:00;;;;;;;;;;;;;;;7.22;100.00;96949.13;5072898;28;19924;-83
2021/12/09 01:57:28;;;;;;;;;;;;;;;7.37;100.00;96950.16;5089976;28;19928;-83
2021/12/09 01:59:55;;;;;;;;;;;;;;;7.09;100.00;96962.28;5073061;28;19971;-83
2021/12/09 02:02:22;;;;;;;;;;;;;;;7.07;100.00;96973.09;5073279;28;19925;-83
2021/12/09 02:04:50;;;;;;;;;;;;;;;7.05;100.00;96967.19;5074200;28;20289;-83
2021/12/09 02:07:17;;;;;;;;;;;;;;;6.96;100.00;96970.69;5055969;28;19929;-83
2021/12/09 02:09:44;;;;;;;;;;;;;;;7.09;100.00;96974.16;5074367;28;19924;-83
2021/12/09 02:12:11;;;;;;;;;;;;;;;6.94;100.00;96972.34;5072877;28;19978;-83
2021/12/09 02:14:41;;;;;;;;;;;;;;;7.08;100.00;96971.84;5074121;28;19925;-83
2021/12/09 02:17:10;;;;;;;;;;;;;;;6.81;100.00;96961.28;5072863;28;19931;-83
2021/12/09 02:19:42;;;;;;;;;;;;;;;6.93;100.00;96976.34;5072787;28;20379;-83
2021/12/09 02:22:10;;;;;;;;;;;;;;;6.82;100.00;96981.47;5072518;28;19938;-83
2021/12/09 02:24:38;;;;;;;;;;;;;;;7.01;100.00;96992.31;5072900;28;19928;-83
2021/12/09 02:27:05;;;;;;;;;;;;;;;7.02;100.00;96984.75;5072850;28;20291;-83
2021/12/09 02:29:34;;;;;;;;;;;;;;;6.77;100.00;96985.59;5089330;28;20268;-82
2021/12/09 02:32:01;;;;;;;;;;;;;;;6.85;100.00;96997.25;5072649;28;19986;-83
2021/12/09 02:34:28;;;;;;;;;;;;;;;7.18;100.00;96998.47;5072990;28;19930;-83
2021/12/09 02:36:55;;;;;;;;;;;;;;;6.84;100.00;97006.78;5089305;28;19924;-83
2021/12/09 02:39:22;;;;;;;;;;;;;;;6.81;100.00;96993.81;5055804;28;20370;-83
2021/12/09 02:41:50;;;;;;;;;;;;;;;7.07;100.00;97011.97;5072786;28;20363;-83
2021/12/09 02:44:18;;;;;;;;;;;;;;;7.10;100.00;97025.69;5072665;28;20386;-83
2021/12/09 02:46:47;;;;;;;;;;;;;;;7.25;100.00;96998.22;5073759;28;19924;-83
2021/12/09 02:49:20;;;;;;;;;;;;;;;7.14;100.00;97011.69;5059426;28;19925;-83
2021/12/09 02:51:48;;;;;;;;;;;;;;;7.42;100.00;97015.47;5076365;28;20349;-83
2021/12/09 02:54:16;;;;;;;;;;;;;;;7.30;100.00;97014.28;5093818;28;19924;-83
2021/12/09 02:56:44;;;;;;;;;;;;;;;7.69;100.00;97012.91;5076401;28;20409;-83
2021/12/09 02:59:12;;;;;;;;;;;;;;;7.93;100.00;97020.31;5077625;28;20389;-83
2021/12/09 03:01:52;;;;;;;;;;;;;;;7.99;100.00;97028.84;5093255;28;19924;-83
2021/12/09 03:04:20;;;;;;;;;;;;;;;7.99;100.00;97028.84;5059907;28;20015;-83
2021/12/09 03:06:48;;;;;;;;;;;;;;;8.03;100.00;97016.34;5043571;28;20252;-83
2021/12/09 03:09:17;;;;;;;;;;;;;;;8.09;100.00;97020.09;5092945;28;20287;-82
2021/12/09 03:11:47;;;;;;;;;;;;;;;8.23;100.00;97021.56;5093223;28;19925;-83
2021/12/09 03:14:16;;;;;;;;;;;;;;;8.10;100.00;97029.22;5076249;28;19932;-83
2021/12/09 03:16:43;;;;;;;;;;;;;;;8.22;100.00;97037.50;5076095;28;19978;-84
2021/12/09 03:19:10;;;;;;;;;;;;;;;8.18;100.00;97034.03;5075895;28;20421;-83
2021/12/09 03:21:41;;;;;;;;;;;;;;;8.03;100.00;97018.34;5075726;28;19925;-83
2021/12/09 03:24:11;;;;;;;;;;;;;;;8.30;100.00;97052.66;5092936;28;19928;-83
2021/12/09 03:26:44;;;;;;;;;;;;;;;8.36;100.00;97036.94;5076150;28;19928;-83
2021/12/09 03:29:12;;;;;;;;;;;;;;;8.37;100.00;97048.84;5076214;28;19924;-83
2021/12/09 03:31:43;;;;;;;;;;;;;;;7.97;100.00;97048.75;5075642;28;20278;-83
2021/12/09 03:34:10;;;;;;;;;;;;;;;8.17;100.00;97053.97;5075634;28;19924;-83
2021/12/09 03:36:38;;;;;;;;;;;;;;;8.25;100.00;97058.84;5092868;28;19976;-83
2021/12/09 03:39:10;;;;;;;;;;;;;;;7.95;100.00;97051.19;5075626;28;19974;-83
2021/12/09 03:41:38;;;;;;;;;;;;;;;8.29;100.00;97070.59;5075752;28;19932;-83
2021/12/09 03:44:06;;;;;;;;;;;;;;;8.37;100.00;97074.69;5075946;28;19925;-83
2021/12/09 03:46:33;;;;;;;;;;;;;;;7.98;100.00;97064.19;5076796;28;19928;-83
2021/12/09 03:49:01;;;;;;;;;;;;;;;8.00;100.00;97066.53;5092186;28;19967;-83
2021/12/09 03:51:29;;;;;;;;;;;;;;;8.24;100.00;97073.97;5075792;28;19931;-83
2021/12/09 03:53:56;;;;;;;;;;;;;;;8.07;100.00;97080.97;5075765;28;19931;-83
2021/12/09 03:56:23;;;;;;;;;;;;;;;7.99;100.00;97076.91;5075309;28;20421;-83
2021/12/09 03:58:51;;;;;;;;;;;;;;;7.97;100.00;97093.25;5074919;28;20015;-83
2021/12/09 04:01:19;;;;;;;;;;;;;;;8.02;100.00;97103.00;5092219;28;20013;-83
2021/12/09 04:03:46;;;;;;;;;;;;;;;7.98;100.00;97111.47;5075049;28;20005;-83
2021/12/09 04:06:13;;;;;;;;;;;;;;;7.96;100.00;97113.16;5075465;28;19932;-82
2021/12/09 04:08:40;;;;;;;;;;;;;;;7.90;100.00;97112.97;5092002;28;20325;-83
2021/12/09 04:11:10;;;;;;;;;;;;;;;7.90;100.00;97101.06;5092354;28;19929;-83
2021/12/09 04:13:38;;;;;;;;;;;;;;;8.05;100.00;97122.34;5091809;28;19924;-82
2021/12/09 04:16:07;;;;;;;;;;;;;;;7.90;100.00;97109.41;5074789;28;19990;-82
2021/12/09 04:18:36;;;;;;;;;;;;;;;8.16;100.00;97116.41;5074671;28;19928;-82
2021/12/09 04:21:03;;;;;;;;;;;;;;;7.92;100.00;97123.66;5075049;28;19924;-82
2021/12/09 04:23:31;;;;;;;;;;;;;;;7.94;100.00;97143.41;5058163;28;19931;-83
2021/12/09 04:25:59;;;;;;;;;;;;;;;7.86;100.00;97137.34;5075211;28;20394;-82
2021/12/09 04:28:26;;;;;;;;;;;;;;;7.89;100.00;97130.88;5076015;28;19993;-82
2021/12/09 04:30:53;;;;;;;;;;;;;;;7.90;100.00;97145.56;5074714;28;19932;-82
2021/12/09 04:33:20;;;;;;;;;;;;;;;8.01;100.00;97152.28;5091424;28;19932;-82
2021/12/09 04:35:48;;;;;;;;;;;;;;;8.01;100.00;97149.50;5074726;28;19924;-82
2021/12/09 04:38:15;;;;;;;;;;;;;;;8.09;100.00;97150.81;5057882;28;19947;-82
2021/12/09 04:41:07;;;;;;;;;;;;;;;8.13;100.00;97159.81;5057930;28;20026;-82
2021/12/09 04:43:35;;;;;;;;;;;;;;;7.85;100.00;97146.91;5074526;28;19924;-82
2021/12/09 04:46:02;;;;;;;;;;;;;;;7.99;100.00;97160.31;5091131;28;20321;-82
2021/12/09 04:48:29;;;;;;;;;;;;;;;8.04;100.00;97154.16;5057461;28;19924;-82
2021/12/09 04:50:57;;;;;;;;;;;;;;;8.10;100.00;97173.84;5057843;28;19925;-82
2021/12/09 04:53:24;;;;;;;;;;;;;;;7.96;100.00;97164.00;5057583;28;19929;-83
2021/12/09 04:55:51;;;;;;;;;;;;;;;8.29;100.00;97176.34;5074640;28;19924;-82
2021/12/09 04:58:19;;;;;;;;;;;;;;;8.35;100.00;97180.09;5073995;28;19928;-82
2021/12/09 05:00:48;;;;;;;;;;;;;;;8.28;100.00;97168.44;5074069;28;19925;-82
2021/12/09 05:03:15;;;;;;;;;;;;;;;8.28;100.00;97174.78;5090575;28;19946;-82
2021/12/09 05:05:44;;;;;;;;;;;;;;;7.89;100.00;97141.25;5057549;28;19924;-82
2021/12/09 05:08:13;;;;;;;;;;;;;;;7.99;100.00;97154.75;5074255;28;19928;-82
2021/12/09 05:13:37;;;;;;;;;;;;;;;8.04;100.00;97162.50;5072474;28;19974;-82
2021/12/09 05:16:05;;;;;;;;;;;;;;;8.08;100.00;97168.72;5073465;28;19932;-82
2021/12/09 05:18:35;;;;;;;;;;;;;;;7.97;100.00;97153.63;5073726;28;19925;-83
2021/12/09 05:21:03;;;;;;;;;;;;;;;8.18;100.00;97164.03;5090714;28;20373;-82
2021/12/09 05:23:30;;;;;;;;;;;;;;;8.06;100.00;97175.97;5074119;28;20370;-83
2021/12/09 05:25:57;;;;;;;;;;;;;;;7.76;100.00;97157.16;5057054;28;20294;-82
2021/12/09 05:28:31;;;;;;;;;;;;;;;8.14;100.00;97188.38;5090344;28;20069;-83
2021/12/09 05:33:46;;;;;;;;;;;;;;;7.77;100.00;97161.53;5075043;28;19931;-83
2021/12/09 05:36:13;;;;;;;;;;;;;;;7.90;100.00;97157.47;5073451;28;20019;-83
2021/12/09 05:38:41;;;;;;;;;;;;;;;7.98;100.00;97178.22;5073512;28;19932;-83
2021/12/09 05:41:08;;;;;;;;;;;;;;;7.81;100.00;97156.59;5090208;28;19974;-83
2021/12/09 05:43:36;;;;;;;;;;;;;;;7.94;100.00;97177.56;5073259;28;19925;-83
2021/12/09 05:46:04;;;;;;;;;;;;;;;7.75;100.00;97164.75;5056659;28;19925;-83
2021/12/09 05:48:31;;;;;;;;;;;;;;;7.96;100.00;97168.78;5074438;28;19925;-83
2021/12/09 05:50:58;;;;;;;;;;;;;;;7.94;100.00;97179.56;5073124;28;19924;-83
2021/12/09 05:53:25;;;;;;;;;;;;;;;7.89;100.00;97166.25;5073242;28;19924;-83
2021/12/09 05:55:52;;;;;;;;;;;;;;;8.25;100.00;97192.38;5073141;28;20450;-83
2021/12/09 05:58:20;;;;;;;;;;;;;;;8.01;100.00;97174.53;5072845;28;20393;-83
2021/12/09 06:00:49;;;;;;;;;;;;;;;7.77;100.00;97178.97;5072730;28;20405;-83
2021/12/09 06:03:16;;;;;;;;;;;;;;;8.30;100.00;97191.03;5056372;28;20379;-83
2021/12/09 06:05:43;;;;;;;;;;;;;;;8.18;100.00;97180.72;5089726;28;19925;-83
2021/12/09 06:08:11;;;;;;;;;;;;;;;8.16;100.00;97181.16;5072938;28;20005;-85
2021/12/09 06:10:38;;;;;;;;;;;;;;;8.23;100.00;97189.28;5056175;28;20405;-85
2021/12/09 06:13:05;;;;;;;;;;;;;;;8.30;100.00;97193.81;5072809;28;19924;-85
2021/12/09 06:15:33;;;;;;;;;;;;;;;8.24;100.00;97195.63;5072785;28;19931;-85
2021/12/09 06:18:00;;;;;;;;;;;;;;;7.96;100.00;97180.69;5074409;28;19951;-85
2021/12/09 06:20:28;;;;;;;;;;;;;;;8.50;100.00;97200.59;5072716;28;19978;-84
2021/12/09 06:22:55;;;;;;;;;;;;;;;8.51;100.00;97193.78;5055839;28;19929;-83
2021/12/09 06:25:23;;;;;;;;;;;;;;;8.28;100.00;97194.25;5072716;28;20409;-86
2021/12/09 06:27:51;;;;;;;;;;;;;;;8.45;100.00;97205.97;5072591;28;19936;-82
2021/12/09 06:30:19;;;;;;;;;;;;;;;8.42;100.00;97218.78;5089124;28;19928;-84
2021/12/09 06:32:48;;;;;;;;;;;;;;;8.61;100.00;97219.69;5071917;28;20627;-83
2021/12/09 06:35:16;;;;;;;;;;;;;;;8.67;100.00;97227.00;5089284;28;19972;-83
2021/12/09 06:37:45;;;;;;;;;;;;;;;8.29;100.00;97215.28;5106766;28;19971;-90
2021/12/09 06:40:14;;;;;;;;;;;;;;;8.15;100.00;97232.44;5092930;28;19931;-87
2021/12/09 06:42:42;;;;;;;;;;;;;;;8.39;100.00;97244.72;5092552;28;19924;-86
2021/12/09 06:45:11;;;;;;;;;;;;;;;8.56;100.00;97234.94;5059517;28;20001;-87
2021/12/09 06:47:39;;;;;;;;;;;;;;;8.13;100.00;97240.47;5059723;28;19928;-88
2021/12/09 06:50:07;;;;;;;;;;;;;;;8.60;100.00;97252.28;5092838;28;19931;-89
2021/12/09 06:52:34;;;;;;;;;;;;;;;8.95;100.00;97261.34;5076186;28;19928;-86
2021/12/09 06:55:07;;;;;;;;;;;;;;;8.39;100.00;97257.88;5076056;28;19924;-89
2021/12/09 06:57:35;;;;;;;;;;;;;;;9.05;100.00;97258.16;5092377;28;19924;-90
2021/12/09 07:00:03;;;;;;;;;;;;;;;8.96;100.00;97257.31;5092946;28;19924;-89
2021/12/09 07:02:30;;;;;;;;;;;;;;;8.45;100.00;97234.56;5109565;28;20023;-89
2021/12/09 07:04:58;;;;;;;;;;;;;;;8.60;100.00;97241.16;5092556;28;19931;-89
2021/12/09 07:07:25;;;;;;;;;;;;;;;8.48;100.00;97236.44;5059062;28;19928;-89
2021/12/09 07:09:52;;;;;;;;;;;;;;;8.43;100.00;97253.75;5059226;28;20014;-88
2021/12/09 07:12:19;;;;;;;;;;;;;;;8.71;100.00;97260.25;5075727;28;20368;-89
2021/12/09 07:14:47;;;;;;;;;;;;;;;9.14;100.00;97258.19;5076057;28;19924;-89
2021/12/09 07:17:16;;;;;;;;;;;;;;;8.00;100.00;97273.09;5059057;28;19931;-89
2021/12/09 07:19:43;;;;;;;;;;;;;;;7.62;100.00;97268.84;5075576;28;19928;-89
2021/12/09 07:22:10;;;;;;;;;;;;;;;7.56;100.00;97285.28;5058938;28;19924;-89
2021/12/09 07:24:37;;;;;;;;;;;;;;;7.51;100.00;97287.88;5092464;28;19924;-89
2021/12/09 07:27:04;;;;;;;;;;;;;;;7.38;100.00;97288.66;5059007;28;19977;-89
2021/12/09 07:29:32;;;;;;;;;;;;;;;7.24;100.00;97296.63;5088404;28;19931;-86
2021/12/09 07:31:59;;;;;;;;;;;;;;;7.46;100.00;97294.75;5082226;28;20026;-89
2021/12/09 07:34:38;;;;;;;;;;;;;;;7.73;100.00;97305.41;5092499;28;19931;-89
2021/12/09 07:37:05;;;;;;;;;;;;;;;7.48;100.00;97295.09;5058607;28;20053;-88
2021/12/09 07:39:38;;;;;;;;;;;;;;;7.43;100.00;97306.75;5060067;28;19932;-89
2021/12/09 07:42:05;;;;;;;;;;;;;;;7.38;100.00;97306.56;5042201;28;19924;-89
2021/12/09 07:44:35;;;;;;;;;;;;;;;7.40;100.00;97310.44;5075731;28;19925;-89
2021/12/09 07:47:02;;;;;;;;;;;;;;;7.38;100.00;97312.09;5075688;28;19930;-88
2021/12/09 07:49:29;;;;;;;;;;;;;;;7.43;100.00;97320.66;5042599;28;20013;-89
2021/12/09 07:51:57;;;;;;;;;;;;;;;7.63;100.00;97334.31;5075592;28;19926;-90
2021/12/09 07:54:24;;;;;;;;;;;;;;;7.68;100.00;97328.97;5075616;28;19968;-89
2021/12/09 07:56:52;;;;;;;;;;;;;;;7.49;100.00;97329.22;5059079;28;19932;-89
2021/12/09 07:59:19;;;;;;;;;;;;;;;7.48;100.00;97333.22;5092252;28;19925;-82
2021/12/09 08:01:47;;;;;;;;;;;;;;;7.46;100.00;97342.00;5075816;28;19924;-82
2021/12/09 08:04:15;;;;;;;;;;;;;;;7.36;100.00;97348.66;5076301;28;19924;-84
2021/12/09 08:06:42;;;;;;;;;;;;;;;7.47;100.00;97342.78;5076202;28;19931;-86
2021/12/09 08:09:10;;;;;;;;;;;;;;;7.46;100.00;97341.22;5075015;28;20272;-86
2021/12/09 08:11:37;;;;;;;;;;;;;;;7.34;100.00;97334.44;5074999;28;19925;-86
2021/12/09 08:14:06;;;;;;;;;;;;;;;7.43;100.00;97339.31;5075232;28;19931;-86
2021/12/09 08:16:37;;;;;;;;;;;;;;;7.43;100.00;97342.09;5075272;28;19928;-87
2021/12/09 08:19:08;;;;;;;;;;;;;;;7.43;100.00;97333.75;5091673;28;19924;-86
2021/12/09 08:21:37;;;;;;;;;;;;;;;7.28;100.00;97350.09;5075368;28;19924;-85
2021/12/09 08:24:05;;;;;;;;;;;;;;;7.41;100.00;97362.00;5058196;28;19924;-83
2021/12/09 08:26:32;;;;;;;;;;;;;;;7.24;100.00;97364.09;5083840;28;19928;-82
2021/12/09 08:28:59;;;;;;;;;;;;;;;7.67;100.00;97351.66;5096558;28;20306;-83
2021/12/09 08:31:33;;;;;;;;;;;;;;;7.04;100.00;97346.06;5096258;28;20014;-82
2021/12/09 08:34:02;;;;;;;;;;;;;;;6.62;100.00;97347.28;5061726;28;19924;-82
2021/12/09 08:36:41;;;;;;;;;;;;;;;6.90;100.00;97349.25;5078278;28;20016;-83
2021/12/09 08:39:08;;;;;;;;;;;;;;;7.16;100.00;97350.84;5094603;28;19956;-82
2021/12/09 08:41:35;;;;;;;;;;;;;;;7.26;100.00;97344.19;5075171;28;19931;-84
2021/12/09 08:44:03;;;;;;;;;;;;;;;7.38;100.00;97346.22;5041360;28;19924;-84
2021/12/09 08:46:30;;;;;;;;;;;;;;;7.29;100.00;97344.09;5074419;28;19924;-82
2021/12/09 08:48:57;;;;;;;;;;;;;;;7.21;100.00;97345.53;5074554;28;19931;-82
2021/12/09 08:51:25;;;;;;;;;;;;;;;7.39;100.00;97336.66;5075697;28;19925;-88
2021/12/09 08:53:53;;;;;;;;;;;;;;;7.09;100.00;97335.19;5090939;28;20644;-82
2021/12/09 08:56:20;;;;;;;;;;;;;;;7.29;100.00;97327.44;5091474;28;19977;-87
2021/12/09 08:58:48;;;;;;;;;;;;;;;7.11;100.00;97326.41;5074181;28;20286;-87
2021/12/09 09:01:15;;;;;;;;;;;;;;;7.18;100.00;97331.72;5074057;28;19924;-87
2021/12/09 09:03:42;;;;;;;;;;;;;;;7.24;100.00;97322.41;5057957;28;19993;-87
2021/12/09 09:06:10;;;;;;;;;;;;;;;7.07;100.00;97320.94;5057718;28;19928;-85
2021/12/09 09:08:37;;;;;;;;;;;;;;;7.35;100.00;97334.00;5073900;28;19925;-86
2021/12/09 09:11:05;;;;;;;;;;;;;;;7.34;100.00;97332.44;5057470;28;19963;-86
2021/12/09 09:13:32;;;;;;;;;;;;;;;7.32;100.00;97322.97;5057458;28;20023;-86
2021/12/09 09:15:59;;;;;;;;;;;;;;;7.04;100.00;97321.06;5075332;28;20114;-83
2021/12/09 09:18:26;;;;;;;;;;;;;;;7.45;100.00;97334.09;5074308;28;19924;-87
2021/12/09 09:20:54;;;;;;;;;;;;;;;7.40;100.00;97332.66;5057476;28;20287;-87
2021/12/09 09:23:22;;;;;;;;;;;;;;;7.25;100.00;97331.53;5044827;28;19981;-87
2021/12/09 09:25:50;;;;;;;;;;;;;;;7.28;100.00;97339.75;5081851;28;20035;-87
2021/12/09 09:28:18;;;;;;;;;;;;;;;7.61;100.00;97326.44;5079950;28;19925;-86
2021/12/09 09:30:53;;;;;;;;;;;;;;;7.40;100.00;97332.66;5073738;28;21406;-87
2021/12/09 09:33:25;;;;;;;;;;;;;;;7.44;100.00;97336.09;5090346;28;19931;-87
2021/12/09 09:35:52;;;;;;;;;;;;;;;7.50;100.00;97319.66;5091174;28;19935;-86
2021/12/09 09:38:20;;;;;;;;;;;;;;;7.69;100.00;97333.34;5056687;28;19924;-86
2021/12/09 09:40:51;;;;;;;;;;;;;;;7.61;100.00;97345.88;5075918;28;19932;-87
2021/12/09 09:46:20;;;;;;;;;;;;;;;7.71;100.00;97344.75;5040235;28;19928;-85
2021/12/09 09:48:48;;;;;;;;;;;;;;;7.66;100.00;97355.69;5105530;28;19930;-86
2021/12/09 09:51:18;;;;;;;;;;;;;;;7.89;100.00;97347.00;5089701;28;19924;-86
2021/12/09 09:53:46;;;;;;;;;;;;;;;7.90;100.00;97352.09;5093172;28;19931;-84
2021/12/09 09:56:16;;;;;;;;;;;;;;;7.90;100.00;97360.44;5092708;28;19932;-86
2021/12/09 09:58:46;;;;;;;;;;;;;;;7.83;100.00;97366.22;5106608;28;20377;-86
2021/12/09 10:01:14;;;;;;;;;;;;;;;7.87;100.00;97363.34;5093428;28;20271;-87
2021/12/09 10:03:44;;;;;;;;;;;;;;;8.00;100.00;97364.88;5110205;28;20324;-88
2021/12/09 10:06:12;;;;;;;;;;;;;;;7.85;100.00;97354.66;5093058;28;20034;-87
2021/12/09 10:08:40;;;;;;;;;;;;;;;7.60;100.00;97349.13;5075856;28;20332;-87
2021/12/09 10:11:07;;;;;;;;;;;;;;;7.83;100.00;97355.09;5094149;28;19932;-87
2021/12/09 10:13:40;;;;;;;;;;;;;;;8.05;100.00;97366.31;5072616;28;20290;-86
2021/12/09 10:16:15;;;;;;;;;;;;;;;8.08;100.00;97365.41;5090279;28;20378;-86
2021/12/09 10:18:44;;;;;;;;;;;;;;;8.43;100.00;97359.50;5059419;28;20271;-86
2021/12/09 10:21:18;;;;;;;;;;;;;;;8.57;100.00;97358.97;5092068;28;19927;-85
2021/12/09 10:23:49;;;;;;;;;;;;;;;8.79;100.00;97362.59;5090345;28;19924;-86
2021/12/09 10:26:25;;;;;;;;;;;;;;;8.37;100.00;97355.72;5075822;28;19924;-85
2021/12/09 10:29:10;;;;;;;;;;;;;;;8.55;100.00;97360.66;5055851;28;20031;-85
2021/12/09 10:31:56;;;;;;;;;;;;;;;8.52;100.00;97367.91;5076602;28;19925;-85
2021/12/09 10:34:40;;;;;;;;;;;;;;;8.27;100.00;97359.63;5091981;28;20282;-86
2021/12/09 10:37:10;;;;;;;;;;;;;;;8.16;100.00;97356.41;5092755;28;19930;-83
2021/12/09 10:39:38;;;;;;;;;;;;;;;7.96;100.00;97363.44;5071774;28;19929;-85
2021/12/09 10:42:11;;;;;;;;;;;;;;;7.83;100.00;97355.09;5089274;28;19925;-85
2021/12/09 10:45:02;;;;;;;;;;;;;;;7.88;100.00;97357.31;5056260;28;20367;-87
2021/12/09 10:50:24;;;;;;;;;;;;;;;8.17;100.00;97357.97;5106138;28;20083;-87
2021/12/09 10:53:05;;;;;;;;;;;;;;;8.06;100.00;97356.75;5076135;28;19924;-87
2021/12/09 10:58:38;;;;;;;;;;;;;;;7.82;100.00;97344.41;5071803;28;19931;-86
2021/12/09 11:01:09;;;;;;;;;;;;;;;8.10;100.00;97341.50;5092704;28;20301;-86
2021/12/09 11:03:40;;;;;;;;;;;;;;;7.98;100.00;97336.72;5064296;28;20007;-85
2021/12/09 11:06:10;;;;;;;;;;;;;;;8.39;100.00;97330.22;5092158;28;19932;-88
2021/12/09 11:08:53;;;;;;;;;;;;;;;8.50;100.00;97334.19;5089404;28;19932;-86
2021/12/09 11:11:25;;;;;;;;;;;;;;;8.06;100.00;97313.03;5078535;28;20467;-86
2021/12/09 11:13:55;;;;;;;;;;;;;;;8.22;100.00;97315.69;5059741;28;19929;-88
2021/12/09 11:16:27;;;;;;;;;;;;;;;7.89;100.00;97331.06;5093385;28;19932;-86
2021/12/09 11:19:04;;;;;;;;;;;;;;;8.35;100.00;97327.56;5075918;28;19924;-85
2021/12/09 11:21:35;;;;;;;;;;;;;;;7.98;100.00;97297.78;5108872;28;19924;-85
2021/12/09 11:24:08;;;;;;;;;;;;;;;7.80;100.00;97297.59;5096008;28;19924;-88
2021/12/09 11:26:45;;;;;;;;;;;;;;;7.85;100.00;97310.16;5104434;28;19924;-81
2021/12/09 11:29:30;;;;;;;;;;;;;;;8.38;100.00;97304.41;5096042;28;19950;-85
2021/12/09 11:34:57;;;;;;;;;;;;;;;8.35;100.00;97319.22;5107548;28;19924;-83
2021/12/09 11:39:56;;;;;;;;;;;;;;;8.54;100.00;97315.34;5095276;28;19963;-89
2021/12/09 11:42:31;;;;;;;;;;;;;;;8.46;100.00;97322.41;5095239;28;19924;-86
2021/12/09 11:45:08;;;;;;;;;;;;;;;8.08;100.00;97312.56;5111701;28;19928;-83
2021/12/09 11:47:38;;;;;;;;;;;;;;;8.40;100.00;97304.72;5096299;28;19924;-87
2021/12/09 11:50:07;;;;;;;;;;;;;;;8.36;100.00;97304.06;5089170;28;19947;-85
2021/12/09 11:57:40;;;;;;;;;;;;;;;8.16;100.00;97292.44;5089977;28;20337;-85
2021/12/09 12:12:21;;;;;;;;;;;;;;;8.78;100.00;97268.34;5096182;28;19925;-86
2021/12/09 12:14:51;;;;;;;;;;;;;;;8.68;100.00;97275.88;5078100;28;19931;-87
2021/12/09 12:17:29;;;;;;;;;;;;;;;8.41;100.00;97272.88;5073379;28;19924;-86
2021/12/09 12:20:16;;;;;;;;;;;;;;;8.82;100.00;97269.78;5091708;28;19928;-82
2021/12/09 12:23:08;;;;;;;;;;;;;;;8.85;100.00;97265.31;5076219;28;19928;-83
2021/12/09 12:25:43;;;;;;;;;;;;;;;8.80;100.00;97269.44;5096478;28;19925;-82
2021/12/09 12:28:26;;;;;;;;;;;;;;;8.86;100.00;97258.53;5112388;28;19946;-85
2021/12/09 12:34:23;;;;;;;;;;;;;;;8.48;100.00;97267.06;5111371;28;19924;-84
2021/12/09 12:39:31;;;;;;;;;;;;;;;8.28;100.00;97255.47;5090968;28;19924;-84
2021/12/09 12:42:09;;;;;;;;;;;;;;;8.19;100.00;97254.59;5072112;28;19925;-84
2021/12/09 12:44:56;;;;;;;;;;;;;;;8.52;100.00;97250.22;5091617;28;19924;-84
2021/12/09 12:47:28;;;;;;;;;;;;;;;8.82;100.00;97244.72;5094380;28;19924;-84
2021/12/09 12:50:11;;;;;;;;;;;;;;;8.65;100.00;97245.38;5077514;28;20066;-84
2021/12/09 12:52:39;;;;;;;;;;;;;;;8.63;100.00;97233.94;5093862;28;19955;-84
2021/12/09 12:55:24;;;;;;;;;;;;;;;8.70;100.00;97228.88;5077147;28;19927;-84
2021/12/09 12:57:53;;;;;;;;;;;;;;;8.86;100.00;97225.84;5110306;28;20506;-84
2021/12/09 13:00:24;;;;;;;;;;;;;;;8.61;100.00;97219.69;5110119;28;20036;-84
2021/12/09 13:05:37;;;;;;;;;;;;;;;8.72;100.00;97204.13;5094759;28;20014;-84
2021/12/09 13:16:01;;;;;;;;;;;;;;;9.15;100.00;97195.66;5094342;28;19924;-84
2021/12/09 13:18:41;;;;;;;;;;;;;;;8.87;100.00;97185.66;5094449;28;19924;-84
2021/12/09 13:21:28;;;;;;;;;;;;;;;8.79;100.00;97181.59;5093160;28;19924;-85
2021/12/09 13:24:39;;;;;;;;;;;;;;;8.78;100.00;97173.69;5110022;28;19924;-85
2021/12/09 13:36:16;;;;;;;;;;;;;;;8.44;100.00;97149.53;5054969;28;19925;-85
2021/12/09 13:47:24;;;;;;;;;;;;;;;8.54;100.00;97131.63;5071206;28;19936;-85
2021/12/09 13:55:07;;;;;;;;;;;;;;;8.47;100.00;97117.22;5054567;28;20283;-84
2021/12/09 13:57:36;;;;;;;;;;;;;;;8.55;100.00;97119.28;5070856;28;19924;-85
2021/12/09 14:00:06;;;;;;;;;;;;;;;8.41;100.00;97111.47;5054128;28;19975;-85
2021/12/09 14:02:37;;;;;;;;;;;;;;;8.35;100.00;97101.38;5075557;28;20011;-85
2021/12/09 14:05:05;;;;;;;;;;;;;;;8.29;100.00;97097.66;5109262;28;19924;-89
2021/12/09 14:07:40;;;;;;;;;;;;;;;8.40;100.00;97098.81;5094495;28;20140;-88
2021/12/09 14:10:12;;;;;;;;;;;;;;;8.78;100.00;97090.91;5076559;28;19989;-83
2021/12/09 14:12:47;;;;;;;;;;;;;;;8.75;100.00;97089.03;5089000;28;19924;-82
2021/12/09 14:15:21;;;;;;;;;;;;;;;8.89;100.00;97080.13;5089112;28;19974;-84
2021/12/09 14:18:07;;;;;;;;;;;;;;;8.50;100.00;97071.78;5088972;28;20314;-83
2021/12/09 14:20:34;;;;;;;;;;;;;;;8.63;100.00;97070.44;5072843;28;19931;-83